sensor_id;sensor_type;location;lat;lon;timestamp;P1;durP1;ratioP1;P2;durP2;ratioP2
20649;SDS011;10484;48.736;9.332;2023-04-29T00:00:46;5.13;;;2.20;;
20649;SDS011;10484;48.736;9.332;2023-04-29T00:03:11;2.63;;;2.40;;
20649;SDS011;10484;48.736;9.332;2023-04-29T00:05:37;4.23;;;2.63;;
20649;SDS011;10484;48.736;9.332;2023-04-29T00:08:03;2.90;;;2.30;;
20649;SDS011;10484;48.736;9.332;2023-04-29T00:10:29;3.30;;;3.00;;
20649;SDS011;10484;48.736;9.332;2023-04-29T00:12:54;4.30;;;2.53;;
20649;SDS011;10484;48.736;9.332;2023-04-29T00:15:20;2.67;;;2.33;;
20649;SDS011;10484;48.736;9.332;2023-04-29T00:17:45;3.10;;;2.63;;
20649;SDS011;10484;48.736;9.332;2023-04-29T00:20:12;3.00;;;2.70;;
20649;SDS011;10484;48.736;9.332;2023-04-29T00:22:37;3.83;;;2.40;;
20649;SDS011;10484;48.736;9.332;2023-04-29T00:25:04;2.93;;;2.17;;
20649;SDS011;10484;48.736;9.332;2023-04-29T00:27:30;4.07;;;2.53;;
20649;SDS011;10484;48.736;9.332;2023-04-29T00:29:57;5.20;;;2.63;;
20649;SDS011;10484;48.736;9.332;2023-04-29T00:32:22;7.23;;;2.57;;
20649;SDS011;10484;48.736;9.332;2023-04-29T00:34:48;2.40;;;2.20;;
20649;SDS011;10484;48.736;9.332;2023-04-29T00:37:14;3.60;;;2.57;;
20649;SDS011;10484;48.736;9.332;2023-04-29T00:39:40;2.83;;;2.40;;
20649;SDS011;10484;48.736;9.332;2023-04-29T00:42:06;2.37;;;2.17;;
20649;SDS011;10484;48.736;9.332;2023-04-29T00:44:33;4.00;;;2.10;;
20649;SDS011;10484;48.736;9.332;2023-04-29T00:46:59;3.10;;;2.70;;
20649;SDS011;10484;48.736;9.332;2023-04-29T00:49:24;2.93;;;2.17;;
20649;SDS011;10484;48.736;9.332;2023-04-29T00:51:51;2.37;;;2.10;;
20649;SDS011;10484;48.736;9.332;2023-04-29T00:54:18;2.87;;;2.60;;
20649;SDS011;10484;48.736;9.332;2023-04-29T00:56:44;2.93;;;2.63;;
20649;SDS011;10484;48.736;9.332;2023-04-29T00:59:11;2.97;;;2.20;;
20649;SDS011;10484;48.736;9.332;2023-04-29T01:01:39;7.57;;;2.33;;
20649;SDS011;10484;48.736;9.332;2023-04-29T01:04:05;3.10;;;2.27;;
20649;SDS011;10484;48.736;9.332;2023-04-29T01:06:48;5.50;;;2.77;;
20649;SDS011;10484;48.736;9.332;2023-04-29T01:12:20;10.67;;;3.10;;
20649;SDS011;10484;48.736;9.332;2023-04-29T01:17:30;2.60;;;2.23;;
20649;SDS011;10484;48.736;9.332;2023-04-29T01:20:03;2.30;;;2.10;;
20649;SDS011;10484;48.736;9.332;2023-04-29T01:22:32;4.57;;;2.30;;
20649;SDS011;10484;48.736;9.332;2023-04-29T01:24:58;2.13;;;1.83;;
20649;SDS011;10484;48.736;9.332;2023-04-29T01:27:28;4.10;;;2.20;;
20649;SDS011;10484;48.736;9.332;2023-04-29T01:30:06;2.00;;;1.90;;
20649;SDS011;10484;48.736;9.332;2023-04-29T01:32:59;2.83;;;2.33;;
20649;SDS011;10484;48.736;9.332;2023-04-29T01:38:48;2.83;;;2.30;;
20649;SDS011;10484;48.736;9.332;2023-04-29T01:41:34;8.03;;;2.20;;
20649;SDS011;10484;48.736;9.332;2023-04-29T01:44:17;3.27;;;2.73;;
20649;SDS011;10484;48.736;9.332;2023-04-29T01:46:50;2.17;;;1.97;;
20649;SDS011;10484;48.736;9.332;2023-04-29T01:49:24;3.77;;;1.90;;
20649;SDS011;10484;48.736;9.332;2023-04-29T01:51:51;4.23;;;2.60;;
20649;SDS011;10484;48.736;9.332;2023-04-29T01:54:16;3.10;;;2.07;;
20649;SDS011;10484;48.736;9.332;2023-04-29T01:56:42;2.47;;;2.20;;
20649;SDS011;10484;48.736;9.332;2023-04-29T01:59:08;5.03;;;2.23;;
20649;SDS011;10484;48.736;9.332;2023-04-29T02:01:34;4.27;;;2.20;;
20649;SDS011;10484;48.736;9.332;2023-04-29T02:04:00;3.67;;;2.20;;
20649;SDS011;10484;48.736;9.332;2023-04-29T02:06:26;2.20;;;2.00;;
20649;SDS011;10484;48.736;9.332;2023-04-29T02:08:52;3.20;;;1.67;;
20649;SDS011;10484;48.736;9.332;2023-04-29T02:11:17;1.60;;;1.50;;
20649;SDS011;10484;48.736;9.332;2023-04-29T02:13:43;3.27;;;2.17;;
20649;SDS011;10484;48.736;9.332;2023-04-29T02:16:09;3.43;;;2.00;;
20649;SDS011;10484;48.736;9.332;2023-04-29T02:18:35;3.33;;;2.23;;
20649;SDS011;10484;48.736;9.332;2023-04-29T02:21:01;2.13;;;1.93;;
20649;SDS011;10484;48.736;9.332;2023-04-29T02:23:27;1.67;;;1.57;;
20649;SDS011;10484;48.736;9.332;2023-04-29T02:25:53;4.10;;;2.00;;
20649;SDS011;10484;48.736;9.332;2023-04-29T02:28:19;2.73;;;1.70;;
20649;SDS011;10484;48.736;9.332;2023-04-29T02:30:44;1.70;;;1.60;;
20649;SDS011;10484;48.736;9.332;2023-04-29T02:33:10;1.93;;;1.73;;
20649;SDS011;10484;48.736;9.332;2023-04-29T02:35:36;2.13;;;1.50;;
20649;SDS011;10484;48.736;9.332;2023-04-29T02:38:01;3.37;;;2.00;;
20649;SDS011;10484;48.736;9.332;2023-04-29T02:40:27;2.73;;;1.67;;
20649;SDS011;10484;48.736;9.332;2023-04-29T02:42:53;6.40;;;1.93;;
20649;SDS011;10484;48.736;9.332;2023-04-29T02:45:18;4.43;;;1.80;;
20649;SDS011;10484;48.736;9.332;2023-04-29T02:47:44;12.10;;;2.20;;
20649;SDS011;10484;48.736;9.332;2023-04-29T02:50:09;2.17;;;1.80;;
20649;SDS011;10484;48.736;9.332;2023-04-29T02:52:35;2.30;;;1.67;;
20649;SDS011;10484;48.736;9.332;2023-04-29T02:55:01;3.27;;;2.03;;
20649;SDS011;10484;48.736;9.332;2023-04-29T02:57:27;6.90;;;2.00;;
20649;SDS011;10484;48.736;9.332;2023-04-29T02:59:53;4.23;;;1.90;;
20649;SDS011;10484;48.736;9.332;2023-04-29T03:02:19;3.00;;;1.37;;
20649;SDS011;10484;48.736;9.332;2023-04-29T03:04:44;2.87;;;1.50;;
20649;SDS011;10484;48.736;9.332;2023-04-29T03:07:10;2.40;;;2.10;;
20649;SDS011;10484;48.736;9.332;2023-04-29T03:09:36;2.40;;;1.63;;
20649;SDS011;10484;48.736;9.332;2023-04-29T03:12:02;4.37;;;1.40;;
20649;SDS011;10484;48.736;9.332;2023-04-29T03:14:27;3.37;;;1.73;;
20649;SDS011;10484;48.736;9.332;2023-04-29T03:16:53;3.43;;;1.80;;
20649;SDS011;10484;48.736;9.332;2023-04-29T03:19:20;1.73;;;1.63;;
20649;SDS011;10484;48.736;9.332;2023-04-29T03:21:46;2.00;;;1.80;;
20649;SDS011;10484;48.736;9.332;2023-04-29T03:24:12;2.07;;;1.87;;
20649;SDS011;10484;48.736;9.332;2023-04-29T03:26:37;2.27;;;2.07;;
20649;SDS011;10484;48.736;9.332;2023-04-29T03:29:03;2.13;;;1.60;;
20649;SDS011;10484;48.736;9.332;2023-04-29T03:31:29;3.77;;;1.90;;
20649;SDS011;10484;48.736;9.332;2023-04-29T03:33:54;1.67;;;1.47;;
20649;SDS011;10484;48.736;9.332;2023-04-29T03:36:20;1.50;;;1.40;;
20649;SDS011;10484;48.736;9.332;2023-04-29T03:38:45;2.00;;;1.50;;
20649;SDS011;10484;48.736;9.332;2023-04-29T03:41:11;3.30;;;1.70;;
20649;SDS011;10484;48.736;9.332;2023-04-29T03:43:37;2.17;;;1.97;;
20649;SDS011;10484;48.736;9.332;2023-04-29T03:46:02;2.30;;;2.00;;
20649;SDS011;10484;48.736;9.332;2023-04-29T03:48:28;2.13;;;1.77;;
20649;SDS011;10484;48.736;9.332;2023-04-29T03:50:53;2.00;;;1.80;;
20649;SDS011;10484;48.736;9.332;2023-04-29T03:53:19;6.10;;;2.20;;
20649;SDS011;10484;48.736;9.332;2023-04-29T03:55:45;2.57;;;1.60;;
20649;SDS011;10484;48.736;9.332;2023-04-29T03:58:12;2.60;;;1.73;;
20649;SDS011;10484;48.736;9.332;2023-04-29T04:00:38;2.20;;;2.00;;
20649;SDS011;10484;48.736;9.332;2023-04-29T04:03:04;2.47;;;2.00;;
20649;SDS011;10484;48.736;9.332;2023-04-29T04:05:29;1.80;;;1.50;;
20649;SDS011;10484;48.736;9.332;2023-04-29T04:07:55;1.97;;;1.87;;
20649;SDS011;10484;48.736;9.332;2023-04-29T04:10:21;2.70;;;1.67;;
20649;SDS011;10484;48.736;9.332;2023-04-29T04:12:47;2.10;;;1.90;;
20649;SDS011;10484;48.736;9.332;2023-04-29T04:15:12;3.97;;;1.83;;
20649;SDS011;10484;48.736;9.332;2023-04-29T04:17:39;2.93;;;1.63;;
20649;SDS011;10484;48.736;9.332;2023-04-29T04:20:05;1.80;;;1.50;;
20649;SDS011;10484;48.736;9.332;2023-04-29T04:22:31;1.90;;;1.60;;
20649;SDS011;10484;48.736;9.332;2023-04-29T04:24:56;3.67;;;1.90;;
20649;SDS011;10484;48.736;9.332;2023-04-29T04:27:22;3.30;;;2.30;;
20649;SDS011;10484;48.736;9.332;2023-04-29T04:29:51;2.37;;;1.63;;
20649;SDS011;10484;48.736;9.332;2023-04-29T04:32:21;2.73;;;2.17;;
20649;SDS011;10484;48.736;9.332;2023-04-29T04:34:47;2.60;;;2.07;;
20649;SDS011;10484;48.736;9.332;2023-04-29T04:37:13;3.00;;;1.70;;
20649;SDS011;10484;48.736;9.332;2023-04-29T04:39:39;2.40;;;2.07;;
20649;SDS011;10484;48.736;9.332;2023-04-29T04:42:04;2.27;;;2.10;;
20649;SDS011;10484;48.736;9.332;2023-04-29T04:44:30;3.37;;;2.17;;
20649;SDS011;10484;48.736;9.332;2023-04-29T04:46:56;1.87;;;1.73;;
20649;SDS011;10484;48.736;9.332;2023-04-29T04:49:22;2.67;;;1.83;;
20649;SDS011;10484;48.736;9.332;2023-04-29T04:51:51;2.20;;;1.70;;
20649;SDS011;10484;48.736;9.332;2023-04-29T04:54:17;1.73;;;1.63;;
20649;SDS011;10484;48.736;9.332;2023-04-29T04:56:42;4.30;;;1.67;;
20649;SDS011;10484;48.736;9.332;2023-04-29T04:59:08;3.00;;;2.03;;
20649;SDS011;10484;48.736;9.332;2023-04-29T05:01:33;3.03;;;2.30;;
20649;SDS011;10484;48.736;9.332;2023-04-29T05:04:00;2.63;;;2.10;;
20649;SDS011;10484;48.736;9.332;2023-04-29T05:06:27;5.27;;;3.27;;
20649;SDS011;10484;48.736;9.332;2023-04-29T05:08:53;2.67;;;2.47;;
20649;SDS011;10484;48.736;9.332;2023-04-29T05:11:19;2.50;;;2.30;;
20649;SDS011;10484;48.736;9.332;2023-04-29T05:13:46;2.80;;;1.83;;
20649;SDS011;10484;48.736;9.332;2023-04-29T05:16:11;2.40;;;2.20;;
20649;SDS011;10484;48.736;9.332;2023-04-29T05:18:37;2.90;;;2.60;;
20649;SDS011;10484;48.736;9.332;2023-04-29T05:21:03;2.80;;;2.40;;
20649;SDS011;10484;48.736;9.332;2023-04-29T05:23:28;5.67;;;2.63;;
20649;SDS011;10484;48.736;9.332;2023-04-29T05:25:54;3.67;;;3.30;;
20649;SDS011;10484;48.736;9.332;2023-04-29T05:28:20;6.53;;;2.70;;
20649;SDS011;10484;48.736;9.332;2023-04-29T05:30:45;6.63;;;3.00;;
20649;SDS011;10484;48.736;9.332;2023-04-29T05:33:14;8.00;;;3.90;;
20649;SDS011;10484;48.736;9.332;2023-04-29T05:35:39;2.70;;;2.50;;
20649;SDS011;10484;48.736;9.332;2023-04-29T05:38:05;3.87;;;3.40;;
20649;SDS011;10484;48.736;9.332;2023-04-29T05:40:31;13.60;;;5.23;;
20649;SDS011;10484;48.736;9.332;2023-04-29T05:42:56;7.07;;;5.90;;
20649;SDS011;10484;48.736;9.332;2023-04-29T05:45:22;9.23;;;4.90;;
20649;SDS011;10484;48.736;9.332;2023-04-29T05:47:47;10.73;;;6.27;;
20649;SDS011;10484;48.736;9.332;2023-04-29T05:50:13;7.70;;;4.63;;
20649;SDS011;10484;48.736;9.332;2023-04-29T05:52:39;8.83;;;5.53;;
20649;SDS011;10484;48.736;9.332;2023-04-29T05:55:04;5.23;;;4.70;;
20649;SDS011;10484;48.736;9.332;2023-04-29T05:57:30;11.27;;;5.43;;
20649;SDS011;10484;48.736;9.332;2023-04-29T05:59:56;8.23;;;6.83;;
20649;SDS011;10484;48.736;9.332;2023-04-29T06:02:23;9.60;;;6.90;;
20649;SDS011;10484;48.736;9.332;2023-04-29T06:04:49;10.03;;;6.10;;
20649;SDS011;10484;48.736;9.332;2023-04-29T06:07:14;9.50;;;7.03;;
20649;SDS011;10484;48.736;9.332;2023-04-29T06:09:41;8.30;;;6.27;;
20649;SDS011;10484;48.736;9.332;2023-04-29T06:12:07;11.97;;;7.30;;
20649;SDS011;10484;48.736;9.332;2023-04-29T06:14:33;9.20;;;6.93;;
20649;SDS011;10484;48.736;9.332;2023-04-29T06:16:58;8.00;;;7.10;;
20649;SDS011;10484;48.736;9.332;2023-04-29T06:19:24;11.63;;;7.37;;
20649;SDS011;10484;48.736;9.332;2023-04-29T06:21:49;12.20;;;8.07;;
20649;SDS011;10484;48.736;9.332;2023-04-29T06:24:15;11.23;;;7.70;;
20649;SDS011;10484;48.736;9.332;2023-04-29T06:26:41;15.80;;;6.73;;
20649;SDS011;10484;48.736;9.332;2023-04-29T06:29:06;10.70;;;7.97;;
20649;SDS011;10484;48.736;9.332;2023-04-29T06:31:32;11.33;;;7.90;;
20649;SDS011;10484;48.736;9.332;2023-04-29T06:33:57;11.47;;;8.70;;
20649;SDS011;10484;48.736;9.332;2023-04-29T06:36:23;12.73;;;8.33;;
20649;SDS011;10484;48.736;9.332;2023-04-29T06:38:49;12.50;;;8.30;;
20649;SDS011;10484;48.736;9.332;2023-04-29T06:41:14;14.43;;;8.63;;
20649;SDS011;10484;48.736;9.332;2023-04-29T06:43:40;12.70;;;8.53;;
20649;SDS011;10484;48.736;9.332;2023-04-29T06:46:07;13.20;;;8.57;;
20649;SDS011;10484;48.736;9.332;2023-04-29T06:48:33;12.73;;;8.20;;
20649;SDS011;10484;48.736;9.332;2023-04-29T06:50:58;11.97;;;7.00;;
20649;SDS011;10484;48.736;9.332;2023-04-29T06:53:24;9.50;;;7.30;;
20649;SDS011;10484;48.736;9.332;2023-04-29T06:55:50;12.60;;;8.10;;
20649;SDS011;10484;48.736;9.332;2023-04-29T06:58:16;11.73;;;7.10;;
20649;SDS011;10484;48.736;9.332;2023-04-29T07:00:43;7.47;;;6.43;;
20649;SDS011;10484;48.736;9.332;2023-04-29T07:03:10;8.87;;;7.00;;
20649;SDS011;10484;48.736;9.332;2023-04-29T07:05:35;7.17;;;6.23;;
20649;SDS011;10484;48.736;9.332;2023-04-29T07:08:03;11.43;;;6.67;;
20649;SDS011;10484;48.736;9.332;2023-04-29T07:10:29;10.00;;;7.67;;
20649;SDS011;10484;48.736;9.332;2023-04-29T07:12:55;11.27;;;7.47;;
20649;SDS011;10484;48.736;9.332;2023-04-29T07:15:21;9.83;;;7.83;;
20649;SDS011;10484;48.736;9.332;2023-04-29T07:17:46;8.60;;;6.80;;
20649;SDS011;10484;48.736;9.332;2023-04-29T07:20:12;8.13;;;6.27;;
20649;SDS011;10484;48.736;9.332;2023-04-29T07:22:38;8.87;;;6.93;;
20649;SDS011;10484;48.736;9.332;2023-04-29T07:25:04;10.07;;;7.60;;
20649;SDS011;10484;48.736;9.332;2023-04-29T07:27:31;10.53;;;6.30;;
20649;SDS011;10484;48.736;9.332;2023-04-29T07:29:58;10.80;;;8.30;;
20649;SDS011;10484;48.736;9.332;2023-04-29T07:32:25;8.23;;;6.93;;
20649;SDS011;10484;48.736;9.332;2023-04-29T07:34:51;9.67;;;6.30;;
20649;SDS011;10484;48.736;9.332;2023-04-29T07:37:17;12.10;;;7.20;;
20649;SDS011;10484;48.736;9.332;2023-04-29T07:39:42;10.20;;;7.23;;
20649;SDS011;10484;48.736;9.332;2023-04-29T07:42:08;11.90;;;7.00;;
20649;SDS011;10484;48.736;9.332;2023-04-29T07:44:34;11.03;;;7.50;;
20649;SDS011;10484;48.736;9.332;2023-04-29T07:47:00;7.23;;;6.33;;
20649;SDS011;10484;48.736;9.332;2023-04-29T07:49:25;7.50;;;6.20;;
20649;SDS011;10484;48.736;9.332;2023-04-29T07:51:51;12.60;;;7.60;;
20649;SDS011;10484;48.736;9.332;2023-04-29T07:54:17;10.03;;;7.10;;
20649;SDS011;10484;48.736;9.332;2023-04-29T07:56:43;8.00;;;6.77;;
20649;SDS011;10484;48.736;9.332;2023-04-29T07:59:09;7.43;;;5.90;;
20649;SDS011;10484;48.736;9.332;2023-04-29T08:01:35;7.37;;;5.03;;
20649;SDS011;10484;48.736;9.332;2023-04-29T08:04:00;6.27;;;4.83;;
20649;SDS011;10484;48.736;9.332;2023-04-29T08:06:26;6.80;;;5.33;;
20649;SDS011;10484;48.736;9.332;2023-04-29T08:08:52;5.50;;;4.70;;
20649;SDS011;10484;48.736;9.332;2023-04-29T08:11:20;5.83;;;5.13;;
20649;SDS011;10484;48.736;9.332;2023-04-29T08:13:48;6.00;;;4.63;;
20649;SDS011;10484;48.736;9.332;2023-04-29T08:16:14;5.50;;;5.00;;
20649;SDS011;10484;48.736;9.332;2023-04-29T08:18:40;4.87;;;4.30;;
20649;SDS011;10484;48.736;9.332;2023-04-29T08:21:06;6.70;;;4.57;;
20649;SDS011;10484;48.736;9.332;2023-04-29T08:23:33;5.10;;;4.20;;
20649;SDS011;10484;48.736;9.332;2023-04-29T08:25:59;5.90;;;3.80;;
20649;SDS011;10484;48.736;9.332;2023-04-29T08:28:25;4.87;;;4.37;;
20649;SDS011;10484;48.736;9.332;2023-04-29T08:30:52;4.37;;;3.97;;
20649;SDS011;10484;48.736;9.332;2023-04-29T08:33:17;7.10;;;4.70;;
20649;SDS011;10484;48.736;9.332;2023-04-29T08:35:43;4.30;;;3.90;;
20649;SDS011;10484;48.736;9.332;2023-04-29T08:38:08;6.57;;;4.50;;
20649;SDS011;10484;48.736;9.332;2023-04-29T08:40:34;5.70;;;4.37;;
20649;SDS011;10484;48.736;9.332;2023-04-29T08:43:12;5.13;;;4.60;;
20649;SDS011;10484;48.736;9.332;2023-04-29T08:45:39;4.70;;;3.83;;
20649;SDS011;10484;48.736;9.332;2023-04-29T08:48:06;8.40;;;4.53;;
20649;SDS011;10484;48.736;9.332;2023-04-29T08:50:36;5.00;;;4.60;;
20649;SDS011;10484;48.736;9.332;2023-04-29T08:53:05;4.80;;;4.40;;
20649;SDS011;10484;48.736;9.332;2023-04-29T08:55:34;4.00;;;3.70;;
20649;SDS011;10484;48.736;9.332;2023-04-29T08:58:01;4.67;;;3.80;;
20649;SDS011;10484;48.736;9.332;2023-04-29T09:00:29;4.57;;;4.17;;
20649;SDS011;10484;48.736;9.332;2023-04-29T09:02:56;4.50;;;4.03;;
20649;SDS011;10484;48.736;9.332;2023-04-29T09:05:24;4.53;;;4.10;;
20649;SDS011;10484;48.736;9.332;2023-04-29T09:07:51;4.50;;;4.10;;
20649;SDS011;10484;48.736;9.332;2023-04-29T09:10:17;6.67;;;4.87;;
20649;SDS011;10484;48.736;9.332;2023-04-29T09:12:43;4.70;;;4.13;;
20649;SDS011;10484;48.736;9.332;2023-04-29T09:15:10;5.73;;;4.43;;
20649;SDS011;10484;48.736;9.332;2023-04-29T09:17:43;5.50;;;4.40;;
20649;SDS011;10484;48.736;9.332;2023-04-29T09:20:24;5.50;;;3.87;;
20649;SDS011;10484;48.736;9.332;2023-04-29T09:22:51;4.73;;;4.23;;
20649;SDS011;10484;48.736;9.332;2023-04-29T09:25:18;7.87;;;3.97;;
20649;SDS011;10484;48.736;9.332;2023-04-29T09:27:44;4.93;;;3.83;;
20649;SDS011;10484;48.736;9.332;2023-04-29T09:30:10;4.20;;;3.50;;
20649;SDS011;10484;48.736;9.332;2023-04-29T09:32:37;5.17;;;4.17;;
20649;SDS011;10484;48.736;9.332;2023-04-29T09:37:52;5.60;;;4.87;;
20649;SDS011;10484;48.736;9.332;2023-04-29T09:40:31;4.83;;;4.10;;
20649;SDS011;10484;48.736;9.332;2023-04-29T09:42:58;5.00;;;4.30;;
20649;SDS011;10484;48.736;9.332;2023-04-29T09:45:37;3.77;;;3.47;;
20649;SDS011;10484;48.736;9.332;2023-04-29T09:48:06;4.20;;;3.80;;
20649;SDS011;10484;48.736;9.332;2023-04-29T09:50:33;2.93;;;2.73;;
20649;SDS011;10484;48.736;9.332;2023-04-29T09:53:01;2.53;;;2.23;;
20649;SDS011;10484;48.736;9.332;2023-04-29T09:55:27;3.20;;;2.90;;
20649;SDS011;10484;48.736;9.332;2023-04-29T09:57:56;2.67;;;2.40;;
20649;SDS011;10484;48.736;9.332;2023-04-29T10:00:22;3.60;;;3.30;;
20649;SDS011;10484;48.736;9.332;2023-04-29T10:02:49;3.57;;;3.27;;
20649;SDS011;10484;48.736;9.332;2023-04-29T10:05:18;3.40;;;3.10;;
20649;SDS011;10484;48.736;9.332;2023-04-29T10:07:45;4.77;;;2.97;;
20649;SDS011;10484;48.736;9.332;2023-04-29T10:10:12;3.40;;;2.87;;
20649;SDS011;10484;48.736;9.332;2023-04-29T10:12:39;3.17;;;2.87;;
20649;SDS011;10484;48.736;9.332;2023-04-29T10:17:54;2.40;;;2.20;;
20649;SDS011;10484;48.736;9.332;2023-04-29T10:20:24;2.30;;;2.10;;
20649;SDS011;10484;48.736;9.332;2023-04-29T10:22:50;2.50;;;2.30;;
20649;SDS011;10484;48.736;9.332;2023-04-29T10:25:19;2.00;;;1.80;;
20649;SDS011;10484;48.736;9.332;2023-04-29T10:27:46;1.93;;;1.63;;
20649;SDS011;10484;48.736;9.332;2023-04-29T10:30:16;1.97;;;1.60;;
20649;SDS011;10484;48.736;9.332;2023-04-29T10:32:42;2.17;;;1.73;;
20649;SDS011;10484;48.736;9.332;2023-04-29T10:35:10;2.90;;;1.87;;
20649;SDS011;10484;48.736;9.332;2023-04-29T10:37:38;1.90;;;1.80;;
20649;SDS011;10484;48.736;9.332;2023-04-29T10:40:07;1.40;;;1.30;;
20649;SDS011;10484;48.736;9.332;2023-04-29T10:42:44;2.00;;;1.80;;
20649;SDS011;10484;48.736;9.332;2023-04-29T10:45:23;1.90;;;1.40;;
20649;SDS011;10484;48.736;9.332;2023-04-29T10:53:10;1.17;;;0.90;;
20649;SDS011;10484;48.736;9.332;2023-04-29T10:55:38;2.83;;;2.17;;
20649;SDS011;10484;48.736;9.332;2023-04-29T10:58:04;2.43;;;1.60;;
20649;SDS011;10484;48.736;9.332;2023-04-29T11:00:31;2.80;;;1.90;;
20649;SDS011;10484;48.736;9.332;2023-04-29T11:02:58;2.23;;;2.03;;
20649;SDS011;10484;48.736;9.332;2023-04-29T11:05:32;3.73;;;2.10;;
20649;SDS011;10484;48.736;9.332;2023-04-29T11:08:11;2.10;;;1.90;;
20649;SDS011;10484;48.736;9.332;2023-04-29T11:10:40;1.43;;;1.33;;
20649;SDS011;10484;48.736;9.332;2023-04-29T11:13:25;1.93;;;1.60;;
20649;SDS011;10484;48.736;9.332;2023-04-29T11:15:53;2.10;;;1.30;;
20649;SDS011;10484;48.736;9.332;2023-04-29T11:18:29;1.80;;;1.03;;
20649;SDS011;10484;48.736;9.332;2023-04-29T11:23:35;2.07;;;1.40;;
20649;SDS011;10484;48.736;9.332;2023-04-29T11:26:02;1.47;;;1.33;;
20649;SDS011;10484;48.736;9.332;2023-04-29T11:28:31;1.70;;;1.60;;
20649;SDS011;10484;48.736;9.332;2023-04-29T11:30:57;1.83;;;1.40;;
20649;SDS011;10484;48.736;9.332;2023-04-29T11:33:23;1.70;;;1.53;;
20649;SDS011;10484;48.736;9.332;2023-04-29T11:35:51;1.40;;;1.30;;
20649;SDS011;10484;48.736;9.332;2023-04-29T11:38:27;2.27;;;1.90;;
20649;SDS011;10484;48.736;9.332;2023-04-29T11:40:54;2.47;;;1.67;;
20649;SDS011;10484;48.736;9.332;2023-04-29T11:43:21;2.20;;;1.73;;
20649;SDS011;10484;48.736;9.332;2023-04-29T11:45:48;2.00;;;1.80;;
20649;SDS011;10484;48.736;9.332;2023-04-29T11:48:22;2.93;;;1.60;;
20649;SDS011;10484;48.736;9.332;2023-04-29T11:50:52;1.53;;;1.40;;
20649;SDS011;10484;48.736;9.332;2023-04-29T11:53:21;1.40;;;1.30;;
20649;SDS011;10484;48.736;9.332;2023-04-29T11:55:49;1.40;;;1.30;;
20649;SDS011;10484;48.736;9.332;2023-04-29T11:58:20;1.80;;;1.53;;
20649;SDS011;10484;48.736;9.332;2023-04-29T12:00:46;1.53;;;1.30;;
20649;SDS011;10484;48.736;9.332;2023-04-29T12:03:13;1.10;;;1.00;;
20649;SDS011;10484;48.736;9.332;2023-04-29T12:05:46;1.90;;;1.63;;
20649;SDS011;10484;48.736;9.332;2023-04-29T12:08:22;2.20;;;1.80;;
20649;SDS011;10484;48.736;9.332;2023-04-29T12:10:49;2.17;;;1.80;;
20649;SDS011;10484;48.736;9.332;2023-04-29T12:13:16;1.93;;;1.83;;
20649;SDS011;10484;48.736;9.332;2023-04-29T12:15:43;1.87;;;1.60;;
20649;SDS011;10484;48.736;9.332;2023-04-29T12:18:10;2.30;;;1.50;;
20649;SDS011;10484;48.736;9.332;2023-04-29T12:20:36;1.83;;;1.30;;
20649;SDS011;10484;48.736;9.332;2023-04-29T12:23:15;1.87;;;1.60;;
20649;SDS011;10484;48.736;9.332;2023-04-29T12:25:47;1.80;;;1.70;;
20649;SDS011;10484;48.736;9.332;2023-04-29T12:28:17;2.60;;;2.40;;
20649;SDS011;10484;48.736;9.332;2023-04-29T12:30:44;3.20;;;2.90;;
20649;SDS011;10484;48.736;9.332;2023-04-29T12:33:20;3.70;;;2.83;;
20649;SDS011;10484;48.736;9.332;2023-04-29T12:35:49;3.03;;;2.57;;
20649;SDS011;10484;48.736;9.332;2023-04-29T12:38:23;3.73;;;3.10;;
20649;SDS011;10484;48.736;9.332;2023-04-29T12:40:51;4.43;;;3.10;;
20649;SDS011;10484;48.736;9.332;2023-04-29T12:43:18;3.30;;;2.90;;
20649;SDS011;10484;48.736;9.332;2023-04-29T12:45:44;7.53;;;2.87;;
20649;SDS011;10484;48.736;9.332;2023-04-29T12:48:10;4.10;;;2.63;;
20649;SDS011;10484;48.736;9.332;2023-04-29T12:50:37;2.30;;;2.07;;
20649;SDS011;10484;48.736;9.332;2023-04-29T12:53:04;2.20;;;2.00;;
20649;SDS011;10484;48.736;9.332;2023-04-29T12:55:34;2.37;;;1.70;;
20649;SDS011;10484;48.736;9.332;2023-04-29T12:58:01;2.17;;;2.00;;
20649;SDS011;10484;48.736;9.332;2023-04-29T13:00:27;2.70;;;2.03;;
20649;SDS011;10484;48.736;9.332;2023-04-29T13:02:53;2.70;;;2.20;;
20649;SDS011;10484;48.736;9.332;2023-04-29T13:05:18;2.87;;;2.67;;
20649;SDS011;10484;48.736;9.332;2023-04-29T13:07:44;2.73;;;2.33;;
20649;SDS011;10484;48.736;9.332;2023-04-29T13:10:10;4.07;;;2.60;;
20649;SDS011;10484;48.736;9.332;2023-04-29T13:12:38;2.20;;;2.00;;
20649;SDS011;10484;48.736;9.332;2023-04-29T13:15:05;2.00;;;1.70;;
20649;SDS011;10484;48.736;9.332;2023-04-29T13:17:33;2.83;;;1.97;;
20649;SDS011;10484;48.736;9.332;2023-04-29T13:19:59;3.07;;;2.30;;
20649;SDS011;10484;48.736;9.332;2023-04-29T13:22:25;2.87;;;2.67;;
20649;SDS011;10484;48.736;9.332;2023-04-29T13:24:51;3.00;;;2.60;;
20649;SDS011;10484;48.736;9.332;2023-04-29T13:27:17;2.90;;;2.60;;
20649;SDS011;10484;48.736;9.332;2023-04-29T13:29:42;2.90;;;2.70;;
20649;SDS011;10484;48.736;9.332;2023-04-29T13:32:08;2.50;;;2.17;;
20649;SDS011;10484;48.736;9.332;2023-04-29T13:34:33;3.40;;;2.67;;
20649;SDS011;10484;48.736;9.332;2023-04-29T13:36:59;2.93;;;2.63;;
20649;SDS011;10484;48.736;9.332;2023-04-29T13:39:24;3.07;;;2.57;;
20649;SDS011;10484;48.736;9.332;2023-04-29T13:41:50;4.70;;;3.17;;
20649;SDS011;10484;48.736;9.332;2023-04-29T13:44:16;3.77;;;3.37;;
20649;SDS011;10484;48.736;9.332;2023-04-29T13:46:42;4.03;;;3.60;;
20649;SDS011;10484;48.736;9.332;2023-04-29T13:49:10;3.73;;;3.20;;
20649;SDS011;10484;48.736;9.332;2023-04-29T13:51:35;5.00;;;3.90;;
20649;SDS011;10484;48.736;9.332;2023-04-29T13:54:01;5.70;;;3.77;;
20649;SDS011;10484;48.736;9.332;2023-04-29T13:56:27;4.00;;;3.23;;
20649;SDS011;10484;48.736;9.332;2023-04-29T13:58:53;10.50;;;4.13;;
20649;SDS011;10484;48.736;9.332;2023-04-29T14:01:19;5.27;;;3.57;;
20649;SDS011;10484;48.736;9.332;2023-04-29T14:03:46;7.03;;;3.97;;
20649;SDS011;10484;48.736;9.332;2023-04-29T14:06:11;3.37;;;3.03;;
20649;SDS011;10484;48.736;9.332;2023-04-29T14:08:37;3.80;;;3.40;;
20649;SDS011;10484;48.736;9.332;2023-04-29T14:11:03;3.57;;;3.10;;
20649;SDS011;10484;48.736;9.332;2023-04-29T14:13:29;3.27;;;2.97;;
20649;SDS011;10484;48.736;9.332;2023-04-29T14:15:55;3.97;;;3.50;;
20649;SDS011;10484;48.736;9.332;2023-04-29T14:18:20;4.00;;;3.00;;
20649;SDS011;10484;48.736;9.332;2023-04-29T14:20:46;4.33;;;3.53;;
20649;SDS011;10484;48.736;9.332;2023-04-29T14:23:11;6.97;;;4.97;;
20649;SDS011;10484;48.736;9.332;2023-04-29T14:25:37;63.93;;;10.73;;
20649;SDS011;10484;48.736;9.332;2023-04-29T14:28:03;4.60;;;3.17;;
20649;SDS011;10484;48.736;9.332;2023-04-29T14:30:28;5.03;;;4.53;;
20649;SDS011;10484;48.736;9.332;2023-04-29T14:32:54;4.40;;;4.10;;
20649;SDS011;10484;48.736;9.332;2023-04-29T14:35:20;3.43;;;3.23;;
